This is the latest recevied weather packets stored in our database for station/object N8ASV. If no packets are shown the sender has not sent any weather packets the latest 10 day(s).
| Time | Temp. | Humidity | Pressure | Rain* | Wind** | Luminosity | Snow |
|---|---|---|---|---|---|---|---|
| 1777822516 | 15° C | 48% | 1017.4 hPa | 0 mm | - | - | - |
| 1777821316 | 14.44° C | 46% | 1017.6 hPa | 0 mm | - | - | - |
| 1777820716 | 13.89° C | 48% | 1017.7 hPa | 0 mm | - | - | - |
| 1777818316 | 12.78° C | 56% | 1017.6 hPa | 0 mm | - | - | - |
| 1777817716 | 12.22° C | 55% | 1017.6 hPa | 0 mm | - | - | - |
| 1777815916 | 10° C | 63% | 1017.8 hPa | 0 mm | - | - | - |
| 1777815316 | 9.44° C | 66% | 1017.9 hPa | 0 mm | - | - | - |
| 1777813517 | 7.22° C | 73% | 1018 hPa | 0 mm | - | - | - |
| 1777799117 | -0.56° C | 91% | 1016.9 hPa | 0 mm | - | - | - |
| 1777798517 | -0.56° C | 91% | 1016.8 hPa | 0 mm | - | - | - |
| 1777797317 | -0.56° C | 91% | 1016.8 hPa | 0 mm | - | - | - |
| 1777794316 | -0.56° C | 90% | 1016.7 hPa | 0 mm | - | - | - |
| 1777790116 | 0° C | 89% | 1016.9 hPa | 0 mm | - | - | - |
| 1777789516 | 0° C | 89% | 1017 hPa | 0 mm | - | - | - |
| 1777788916 | 0° C | 89% | 1017.1 hPa | 0 mm | - | - | - |
| 1777788316 | 0° C | 89% | 1017.2 hPa | 0 mm | - | - | - |
| 1777787116 | 0.56° C | 89% | 1017.3 hPa | 0 mm | - | - | - |
| 1777785316 | 0.56° C | 88% | 1017.1 hPa | 0 mm | - | - | - |
| 1777784756 | 1.11° C | 88% | 1017.2 hPa | 0 mm | - | - | - |
| 1777783516 | 1.11° C | 88% | 1017 hPa | 0 mm | - | - | - |
| 1777781716 | 1.67° C | 86% | 1017.1 hPa | 0 mm | - | - | - |
| 1777774517 | 3.89° C | 80% | 1016.8 hPa | 0 mm | - | - | - |
| 1777770317 | 6.67° C | 69% | 1016.3 hPa | 0 mm | - | - | - |
| 1777762516 | 11.11° C | 46% | 1015.4 hPa | 0 mm | - | - | - |
| 1777761916 | 11.11° C | 46% | 1015.4 hPa | 0 mm | - | - | - |
* Rain latest hour (hover to see other rain measurements)
** Current wind speed in m/s (hover to see current wind gust speed)